sensor_id;sensor_type;location;lat;lon;timestamp;P1;P2;P0
76784;PMS7003;66893;44.316;0.092;2023-04-03T00:01:03;2.00;2.00;2.00
76784;PMS7003;66893;44.316;0.092;2023-04-03T00:03:29;5.00;2.75;2.00
76784;PMS7003;66893;44.316;0.092;2023-04-03T00:05:55;3.25;3.00;3.00
76784;PMS7003;66893;44.316;0.092;2023-04-03T00:08:21;3.00;3.00;2.25
76784;PMS7003;66893;44.316;0.092;2023-04-03T00:10:46;3.75;3.75;3.00
76784;PMS7003;66893;44.316;0.092;2023-04-03T00:13:12;2.75;2.75;2.50
76784;PMS7003;66893;44.316;0.092;2023-04-03T00:15:38;2.50;2.50;2.00
76784;PMS7003;66893;44.316;0.092;2023-04-03T00:18:05;3.00;3.00;2.00
76784;PMS7003;66893;44.316;0.092;2023-04-03T00:20:31;3.00;3.00;3.00
76784;PMS7003;66893;44.316;0.092;2023-04-03T00:22:57;5.50;3.00;2.00
76784;PMS7003;66893;44.316;0.092;2023-04-03T00:25:22;4.00;3.00;2.75
76784;PMS7003;66893;44.316;0.092;2023-04-03T00:27:48;1.50;1.50;1.00
76784;PMS7003;66893;44.316;0.092;2023-04-03T00:30:15;4.50;4.00;3.00
76784;PMS7003;66893;44.316;0.092;2023-04-03T00:32:42;3.00;3.00;2.00
76784;PMS7003;66893;44.316;0.092;2023-04-03T00:35:07;3.00;3.00;2.25
76784;PMS7003;66893;44.316;0.092;2023-04-03T00:37:33;2.00;2.00;1.00
76784;PMS7003;66893;44.316;0.092;2023-04-03T00:39:59;4.00;4.00;3.00
76784;PMS7003;66893;44.316;0.092;2023-04-03T00:42:25;6.25;3.00;3.00
76784;PMS7003;66893;44.316;0.092;2023-04-03T00:47:21;4.00;2.00;2.00
76784;PMS7003;66893;44.316;0.092;2023-04-03T00:49:48;1.00;1.00;0.00
76784;PMS7003;66893;44.316;0.092;2023-04-03T00:52:16;2.75;2.75;2.50
76784;PMS7003;66893;44.316;0.092;2023-04-03T00:54:45;2.00;2.00;2.00
76784;PMS7003;66893;44.316;0.092;2023-04-03T00:57:13;2.00;2.00;2.00
76784;PMS7003;66893;44.316;0.092;2023-04-03T00:59:43;2.00;2.00;2.00
76784;PMS7003;66893;44.316;0.092;2023-04-03T01:02:13;3.25;3.00;2.75
76784;PMS7003;66893;44.316;0.092;2023-04-03T01:04:40;4.00;2.00;2.00
76784;PMS7003;66893;44.316;0.092;2023-04-03T01:07:12;2.75;2.75;2.50
76784;PMS7003;66893;44.316;0.092;2023-04-03T01:09:42;2.00;2.00;1.75
76784;PMS7003;66893;44.316;0.092;2023-04-03T01:12:29;3.00;3.00;2.75
76784;PMS7003;66893;44.316;0.092;2023-04-03T01:15:03;2.50;2.25;2.00
76784;PMS7003;66893;44.316;0.092;2023-04-03T01:20:11;3.00;3.00;2.50
76784;PMS7003;66893;44.316;0.092;2023-04-03T01:23:01;0.00;0.00;0.00
76784;PMS7003;66893;44.316;0.092;2023-04-03T01:25:35;3.25;2.75;2.00
76784;PMS7003;66893;44.316;0.092;2023-04-03T01:28:01;2.00;2.00;2.00
76784;PMS7003;66893;44.316;0.092;2023-04-03T01:30:30;3.00;2.50;2.00
76784;PMS7003;66893;44.316;0.092;2023-04-03T01:32:57;2.75;1.00;1.00
76784;PMS7003;66893;44.316;0.092;2023-04-03T01:35:23;4.75;2.00;2.00
76784;PMS7003;66893;44.316;0.092;2023-04-03T01:37:48;2.75;2.75;2.75
76784;PMS7003;66893;44.316;0.092;2023-04-03T01:40:14;3.50;2.00;2.00
76784;PMS7003;66893;44.316;0.092;2023-04-03T01:42:40;3.00;3.00;2.00
76784;PMS7003;66893;44.316;0.092;2023-04-03T01:45:05;2.50;2.00;2.00
76784;PMS7003;66893;44.316;0.092;2023-04-03T01:47:31;3.25;3.25;3.00
76784;PMS7003;66893;44.316;0.092;2023-04-03T01:49:57;3.25;3.00;2.00
76784;PMS7003;66893;44.316;0.092;2023-04-03T01:52:22;4.00;3.00;2.50
76784;PMS7003;66893;44.316;0.092;2023-04-03T01:54:48;2.25;2.25;2.00
76784;PMS7003;66893;44.316;0.092;2023-04-03T01:57:13;2.50;2.00;2.00
76784;PMS7003;66893;44.316;0.092;2023-04-03T01:59:40;3.75;3.75;2.00
76784;PMS7003;66893;44.316;0.092;2023-04-03T02:02:06;5.00;3.50;3.00
76784;PMS7003;66893;44.316;0.092;2023-04-03T02:04:31;2.00;2.00;2.00
76784;PMS7003;66893;44.316;0.092;2023-04-03T02:06:57;2.00;2.00;2.00
76784;PMS7003;66893;44.316;0.092;2023-04-03T02:09:22;4.25;4.25;3.00
76784;PMS7003;66893;44.316;0.092;2023-04-03T02:11:48;3.00;3.00;2.50
76784;PMS7003;66893;44.316;0.092;2023-04-03T02:14:13;2.75;2.00;2.00
76784;PMS7003;66893;44.316;0.092;2023-04-03T02:16:38;1.25;1.25;1.25
76784;PMS7003;66893;44.316;0.092;2023-04-03T02:19:04;2.00;2.00;1.75
76784;PMS7003;66893;44.316;0.092;2023-04-03T02:21:29;3.75;3.50;3.00
76784;PMS7003;66893;44.316;0.092;2023-04-03T02:23:55;7.50;3.50;2.75
76784;PMS7003;66893;44.316;0.092;2023-04-03T02:26:21;5.75;4.00;3.00
76784;PMS7003;66893;44.316;0.092;2023-04-03T02:28:46;3.00;3.00;2.50
76784;PMS7003;66893;44.316;0.092;2023-04-03T02:31:12;3.00;3.00;2.50
76784;PMS7003;66893;44.316;0.092;2023-04-03T02:33:37;4.00;3.50;3.00
76784;PMS7003;66893;44.316;0.092;2023-04-03T02:36:04;3.75;3.75;3.00
76784;PMS7003;66893;44.316;0.092;2023-04-03T02:38:31;4.50;4.25;4.00
76784;PMS7003;66893;44.316;0.092;2023-04-03T02:41:00;7.50;6.25;4.00
76784;PMS7003;66893;44.316;0.092;2023-04-03T02:43:30;8.00;5.50;4.00
76784;PMS7003;66893;44.316;0.092;2023-04-03T02:45:56;8.25;6.25;5.00
76784;PMS7003;66893;44.316;0.092;2023-04-03T02:48:22;9.25;7.00;5.75
76784;PMS7003;66893;44.316;0.092;2023-04-03T02:50:48;6.00;4.25;4.00
76784;PMS7003;66893;44.316;0.092;2023-04-03T02:53:14;6.25;5.50;4.25
76784;PMS7003;66893;44.316;0.092;2023-04-03T02:55:40;7.25;7.25;5.00
76784;PMS7003;66893;44.316;0.092;2023-04-03T02:58:05;14.25;9.75;5.50
76784;PMS7003;66893;44.316;0.092;2023-04-03T03:00:31;9.75;6.25;4.50
76784;PMS7003;66893;44.316;0.092;2023-04-03T03:02:58;9.50;7.00;5.00
76784;PMS7003;66893;44.316;0.092;2023-04-03T03:05:24;8.75;7.25;5.00
76784;PMS7003;66893;44.316;0.092;2023-04-03T03:07:50;8.00;5.75;4.25
76784;PMS7003;66893;44.316;0.092;2023-04-03T03:10:16;10.50;9.00;5.25
76784;PMS7003;66893;44.316;0.092;2023-04-03T03:12:41;6.25;6.25;5.00
76784;PMS7003;66893;44.316;0.092;2023-04-03T03:15:07;8.00;5.75;5.00
76784;PMS7003;66893;44.316;0.092;2023-04-03T03:17:32;8.50;8.25;6.25
76784;PMS7003;66893;44.316;0.092;2023-04-03T03:19:58;8.00;8.00;5.25
76784;PMS7003;66893;44.316;0.092;2023-04-03T03:22:23;8.75;8.75;6.50
76784;PMS7003;66893;44.316;0.092;2023-04-03T03:24:49;9.75;8.75;5.75
76784;PMS7003;66893;44.316;0.092;2023-04-03T03:27:15;6.25;6.25;5.00
76784;PMS7003;66893;44.316;0.092;2023-04-03T03:29:41;7.00;7.00;4.25
76784;PMS7003;66893;44.316;0.092;2023-04-03T03:32:07;8.00;8.00;5.00
76784;PMS7003;66893;44.316;0.092;2023-04-03T03:34:33;9.25;7.50;5.00
76784;PMS7003;66893;44.316;0.092;2023-04-03T03:36:58;10.00;6.25;5.00
76784;PMS7003;66893;44.316;0.092;2023-04-03T03:39:24;8.50;8.50;6.75
76784;PMS7003;66893;44.316;0.092;2023-04-03T03:41:49;6.50;6.50;4.25
76784;PMS7003;66893;44.316;0.092;2023-04-03T03:44:15;4.00;4.00;3.00
76784;PMS7003;66893;44.316;0.092;2023-04-03T03:46:40;7.75;5.25;4.50
76784;PMS7003;66893;44.316;0.092;2023-04-03T03:49:06;8.50;5.75;5.50
76784;PMS7003;66893;44.316;0.092;2023-04-03T03:51:31;9.00;5.00;4.00
76784;PMS7003;66893;44.316;0.092;2023-04-03T03:53:57;10.25;6.00;4.75
76784;PMS7003;66893;44.316;0.092;2023-04-03T03:56:22;10.00;8.50;4.50
76784;PMS7003;66893;44.316;0.092;2023-04-03T03:58:48;8.75;8.00;6.25
76784;PMS7003;66893;44.316;0.092;2023-04-03T04:01:14;9.00;9.00;6.25
76784;PMS7003;66893;44.316;0.092;2023-04-03T04:03:40;10.50;7.50;5.75
76784;PMS7003;66893;44.316;0.092;2023-04-03T04:06:06;8.50;7.50;6.25
76784;PMS7003;66893;44.316;0.092;2023-04-03T04:08:31;8.50;6.50;5.25
76784;PMS7003;66893;44.316;0.092;2023-04-03T04:10:57;6.25;6.25;4.25
76784;PMS7003;66893;44.316;0.092;2023-04-03T04:13:22;8.50;5.50;3.00
76784;PMS7003;66893;44.316;0.092;2023-04-03T04:15:49;14.00;8.50;6.25
76784;PMS7003;66893;44.316;0.092;2023-04-03T04:18:14;10.00;8.00;5.50
76784;PMS7003;66893;44.316;0.092;2023-04-03T04:20:40;10.50;9.00;7.00
76784;PMS7003;66893;44.316;0.092;2023-04-03T04:23:05;9.00;8.50;5.75
76784;PMS7003;66893;44.316;0.092;2023-04-03T04:25:31;9.75;9.00;5.00
76784;PMS7003;66893;44.316;0.092;2023-04-03T04:27:57;10.75;9.00;6.25
76784;PMS7003;66893;44.316;0.092;2023-04-03T04:30:23;11.50;9.25;6.25
76784;PMS7003;66893;44.316;0.092;2023-04-03T04:32:48;9.00;8.00;6.50
76784;PMS7003;66893;44.316;0.092;2023-04-03T04:35:14;10.25;10.25;7.00
76784;PMS7003;66893;44.316;0.092;2023-04-03T04:37:39;6.75;4.50;2.00
76784;PMS7003;66893;44.316;0.092;2023-04-03T04:40:05;8.25;8.00;6.00
76784;PMS7003;66893;44.316;0.092;2023-04-03T04:42:31;10.50;10.00;6.00
76784;PMS7003;66893;44.316;0.092;2023-04-03T04:44:57;10.75;10.75;7.50
76784;PMS7003;66893;44.316;0.092;2023-04-03T04:47:22;10.00;8.75;6.25
76784;PMS7003;66893;44.316;0.092;2023-04-03T04:49:47;9.50;8.00;6.25
76784;PMS7003;66893;44.316;0.092;2023-04-03T04:52:13;7.50;7.50;5.75
76784;PMS7003;66893;44.316;0.092;2023-04-03T04:54:39;12.00;9.00;7.50
76784;PMS7003;66893;44.316;0.092;2023-04-03T04:57:05;11.25;8.75;7.50
76784;PMS7003;66893;44.316;0.092;2023-04-03T04:59:30;10.50;9.50;8.00
76784;PMS7003;66893;44.316;0.092;2023-04-03T05:01:55;10.00;10.00;8.50
76784;PMS7003;66893;44.316;0.092;2023-04-03T05:04:21;10.75;10.50;8.25
76784;PMS7003;66893;44.316;0.092;2023-04-03T05:06:46;10.00;10.00;9.00
76784;PMS7003;66893;44.316;0.092;2023-04-03T05:09:12;14.25;12.25;9.00
76784;PMS7003;66893;44.316;0.092;2023-04-03T05:11:37;9.00;5.75;3.00
76784;PMS7003;66893;44.316;0.092;2023-04-03T05:14:03;12.00;12.00;9.00
76784;PMS7003;66893;44.316;0.092;2023-04-03T05:16:31;11.00;11.00;7.50
76784;PMS7003;66893;44.316;0.092;2023-04-03T05:18:57;17.75;12.50;9.25
76784;PMS7003;66893;44.316;0.092;2023-04-03T05:21:22;13.00;12.75;9.25
76784;PMS7003;66893;44.316;0.092;2023-04-03T05:23:51;19.00;17.75;12.25
76784;PMS7003;66893;44.316;0.092;2023-04-03T05:26:16;24.50;18.75;12.75
76784;PMS7003;66893;44.316;0.092;2023-04-03T05:28:42;17.50;16.25;11.50
76784;PMS7003;66893;44.316;0.092;2023-04-03T05:31:07;17.50;17.50;13.25
76784;PMS7003;66893;44.316;0.092;2023-04-03T05:33:33;15.00;14.00;11.75
76784;PMS7003;66893;44.316;0.092;2023-04-03T05:36:01;16.00;14.00;11.25
76784;PMS7003;66893;44.316;0.092;2023-04-03T05:38:30;22.50;19.00;14.25
76784;PMS7003;66893;44.316;0.092;2023-04-03T05:40:57;13.25;13.25;10.00
76784;PMS7003;66893;44.316;0.092;2023-04-03T05:43:22;20.25;20.25;13.00
76784;PMS7003;66893;44.316;0.092;2023-04-03T05:45:48;17.00;16.50;11.50
76784;PMS7003;66893;44.316;0.092;2023-04-03T05:48:13;18.25;16.75;10.75
76784;PMS7003;66893;44.316;0.092;2023-04-03T05:50:39;25.50;16.50;10.50
76784;PMS7003;66893;44.316;0.092;2023-04-03T05:53:06;15.00;15.00;11.00
76784;PMS7003;66893;44.316;0.092;2023-04-03T05:55:36;15.00;14.75;9.25
76784;PMS7003;66893;44.316;0.092;2023-04-03T05:58:01;17.25;14.50;9.25
76784;PMS7003;66893;44.316;0.092;2023-04-03T06:00:26;17.00;16.25;12.25
76784;PMS7003;66893;44.316;0.092;2023-04-03T06:02:52;18.25;14.50;11.50
76784;PMS7003;66893;44.316;0.092;2023-04-03T06:05:18;13.00;12.50;9.75
76784;PMS7003;66893;44.316;0.092;2023-04-03T06:07:43;17.75;12.75;10.00
76784;PMS7003;66893;44.316;0.092;2023-04-03T06:10:10;15.50;14.25;10.75
76784;PMS7003;66893;44.316;0.092;2023-04-03T06:12:37;18.00;16.50;10.50
76784;PMS7003;66893;44.316;0.092;2023-04-03T06:15:02;14.75;12.25;9.25
76784;PMS7003;66893;44.316;0.092;2023-04-03T06:17:28;10.00;10.00;9.00
76784;PMS7003;66893;44.316;0.092;2023-04-03T06:19:54;10.25;9.75;8.00
76784;PMS7003;66893;44.316;0.092;2023-04-03T06:22:20;13.50;11.75;8.50
76784;PMS7003;66893;44.316;0.092;2023-04-03T06:24:46;10.00;8.00;5.25
76784;PMS7003;66893;44.316;0.092;2023-04-03T06:27:11;10.00;10.00;6.50
76784;PMS7003;66893;44.316;0.092;2023-04-03T06:29:37;13.00;11.50;9.25
76784;PMS7003;66893;44.316;0.092;2023-04-03T06:32:03;12.75;9.75;7.75
76784;PMS7003;66893;44.316;0.092;2023-04-03T06:34:29;15.00;11.75;9.00
76784;PMS7003;66893;44.316;0.092;2023-04-03T06:36:54;15.25;15.00;10.00
76784;PMS7003;66893;44.316;0.092;2023-04-03T06:39:20;13.00;11.75;9.75
76784;PMS7003;66893;44.316;0.092;2023-04-03T06:41:47;17.25;14.00;10.75
76784;PMS7003;66893;44.316;0.092;2023-04-03T06:44:13;20.00;18.25;13.00
76784;PMS7003;66893;44.316;0.092;2023-04-03T06:46:40;17.75;15.75;11.25
76784;PMS7003;66893;44.316;0.092;2023-04-03T06:49:07;16.50;14.50;9.00
76784;PMS7003;66893;44.316;0.092;2023-04-03T06:51:34;14.25;12.00;8.25
76784;PMS7003;66893;44.316;0.092;2023-04-03T06:54:00;10.50;10.50;6.25
76784;PMS7003;66893;44.316;0.092;2023-04-03T06:56:27;9.75;8.75;7.25
76784;PMS7003;66893;44.316;0.092;2023-04-03T06:58:53;11.75;10.25;5.50
76784;PMS7003;66893;44.316;0.092;2023-04-03T07:01:23;8.75;8.75;7.00
76784;PMS7003;66893;44.316;0.092;2023-04-03T07:03:50;6.50;6.50;5.75
76784;PMS7003;66893;44.316;0.092;2023-04-03T07:06:16;11.75;9.75;7.25
76784;PMS7003;66893;44.316;0.092;2023-04-03T07:08:42;6.75;6.75;5.00
76784;PMS7003;66893;44.316;0.092;2023-04-03T07:11:09;10.75;6.50;5.00
76784;PMS7003;66893;44.316;0.092;2023-04-03T07:13:35;7.50;7.50;5.50
76784;PMS7003;66893;44.316;0.092;2023-04-03T07:16:01;8.50;6.25;5.00
76784;PMS7003;66893;44.316;0.092;2023-04-03T07:18:28;9.00;6.50;5.75
76784;PMS7003;66893;44.316;0.092;2023-04-03T07:20:54;6.75;5.25;4.00
76784;PMS7003;66893;44.316;0.092;2023-04-03T07:23:20;3.25;3.25;2.50
76784;PMS7003;66893;44.316;0.092;2023-04-03T07:25:46;5.75;5.00;3.50
76784;PMS7003;66893;44.316;0.092;2023-04-03T07:28:14;6.00;6.00;5.00
76784;PMS7003;66893;44.316;0.092;2023-04-03T07:30:47;4.75;4.75;4.00
76784;PMS7003;66893;44.316;0.092;2023-04-03T07:33:17;6.00;6.00;4.50
76784;PMS7003;66893;44.316;0.092;2023-04-03T07:35:44;6.75;6.75;5.00
76784;PMS7003;66893;44.316;0.092;2023-04-03T07:38:10;3.75;3.75;3.00
76784;PMS7003;66893;44.316;0.092;2023-04-03T07:40:36;4.50;4.50;4.00
76784;PMS7003;66893;44.316;0.092;2023-04-03T07:43:03;6.25;5.00;4.50
76784;PMS7003;66893;44.316;0.092;2023-04-03T07:45:30;4.00;3.25;2.00
76784;PMS7003;66893;44.316;0.092;2023-04-03T07:47:55;3.50;3.50;2.75
76784;PMS7003;66893;44.316;0.092;2023-04-03T07:50:21;4.25;4.00;3.25
76784;PMS7003;66893;44.316;0.092;2023-04-03T07:52:47;4.25;4.25;3.25
76784;PMS7003;66893;44.316;0.092;2023-04-03T07:55:13;9.25;5.00;4.00
76784;PMS7003;66893;44.316;0.092;2023-04-03T07:57:39;5.00;4.50;3.50
76784;PMS7003;66893;44.316;0.092;2023-04-03T08:00:05;5.00;4.25;3.75
76784;PMS7003;66893;44.316;0.092;2023-04-03T08:02:31;7.75;4.25;3.50
76784;PMS7003;66893;44.316;0.092;2023-04-03T08:04:59;7.00;3.50;2.75
76784;PMS7003;66893;44.316;0.092;2023-04-03T08:07:24;7.75;5.00;4.25
76784;PMS7003;66893;44.316;0.092;2023-04-03T08:09:50;5.00;5.00;4.00
76784;PMS7003;66893;44.316;0.092;2023-04-03T08:12:16;3.50;3.50;3.00
76784;PMS7003;66893;44.316;0.092;2023-04-03T08:14:42;5.75;5.00;3.00
76784;PMS7003;66893;44.316;0.092;2023-04-03T08:17:07;5.75;4.00;3.00
76784;PMS7003;66893;44.316;0.092;2023-04-03T08:19:36;4.00;2.25;2.25
76784;PMS7003;66893;44.316;0.092;2023-04-03T08:22:05;8.00;5.00;4.00
76784;PMS7003;66893;44.316;0.092;2023-04-03T08:24:33;4.25;4.00;3.50
76784;PMS7003;66893;44.316;0.092;2023-04-03T08:26:59;7.50;5.00;4.00
76784;PMS7003;66893;44.316;0.092;2023-04-03T08:29:25;7.00;5.00;3.00
76784;PMS7003;66893;44.316;0.092;2023-04-03T08:31:51;11.25;9.00;7.50
76784;PMS7003;66893;44.316;0.092;2023-04-03T08:34:17;8.75;5.75;4.50
76784;PMS7003;66893;44.316;0.092;2023-04-03T08:36:43;7.25;4.50;4.00
76784;PMS7003;66893;44.316;0.092;2023-04-03T08:39:08;8.75;6.00;4.00
76784;PMS7003;66893;44.316;0.092;2023-04-03T08:41:36;10.00;6.25;4.50
76784;PMS7003;66893;44.316;0.092;2023-04-03T08:49:30;16.00;13.25;9.00
76784;PMS7003;66893;44.316;0.092;2023-04-03T08:51:59;7.75;4.75;4.25
76784;PMS7003;66893;44.316;0.092;2023-04-03T08:54:35;9.00;5.00;4.00
76784;PMS7003;66893;44.316;0.092;2023-04-03T08:57:06;10.25;7.00;5.00
76784;PMS7003;66893;44.316;0.092;2023-04-03T08:59:33;7.50;5.00;3.25
76784;PMS7003;66893;44.316;0.092;2023-04-03T09:02:02;4.00;4.00;3.00
76784;PMS7003;66893;44.316;0.092;2023-04-03T09:04:48;5.00;5.00;4.00
76784;PMS7003;66893;44.316;0.092;2023-04-03T09:07:15;6.00;4.25;4.00
76784;PMS7003;66893;44.316;0.092;2023-04-03T09:09:50;5.00;5.00;3.00
76784;PMS7003;66893;44.316;0.092;2023-04-03T09:12:21;9.00;8.00;5.00
76784;PMS7003;66893;44.316;0.092;2023-04-03T09:25:59;7.00;7.00;4.00
76784;PMS7003;66893;44.316;0.092;2023-04-03T09:28:29;18.75;16.00;10.25
76784;PMS7003;66893;44.316;0.092;2023-04-03T09:31:00;23.00;22.75;16.00
76784;PMS7003;66893;44.316;0.092;2023-04-03T09:33:27;17.50;17.50;12.25
76784;PMS7003;66893;44.316;0.092;2023-04-03T09:35:55;23.25;21.50;15.25
76784;PMS7003;66893;44.316;0.092;2023-04-03T09:38:21;24.75;20.25;17.00
76784;PMS7003;66893;44.316;0.092;2023-04-03T09:43:26;8.25;6.25;5.00
76784;PMS7003;66893;44.316;0.092;2023-04-03T09:45:54;7.75;5.75;4.00
76784;PMS7003;66893;44.316;0.092;2023-04-03T09:48:24;5.25;4.00;3.00
76784;PMS7003;66893;44.316;0.092;2023-04-03T09:50:54;4.75;4.00;3.00
76784;PMS7003;66893;44.316;0.092;2023-04-03T09:55:55;6.00;3.25;3.00
76784;PMS7003;66893;44.316;0.092;2023-04-03T09:58:26;4.00;2.75;2.50
76784;PMS7003;66893;44.316;0.092;2023-04-03T10:00:58;5.25;3.00;3.00
76784;PMS7003;66893;44.316;0.092;2023-04-03T10:03:30;3.25;3.00;3.00
76784;PMS7003;66893;44.316;0.092;2023-04-03T10:06:04;5.50;2.00;2.00
76784;PMS7003;66893;44.316;0.092;2023-04-03T10:08:58;2.00;2.00;1.25
76784;PMS7003;66893;44.316;0.092;2023-04-03T10:11:31;2.25;2.00;2.00
76784;PMS7003;66893;44.316;0.092;2023-04-03T10:13:58;6.25;3.00;2.00
76784;PMS7003;66893;44.316;0.092;2023-04-03T10:25:43;3.75;3.75;3.00
76784;PMS7003;66893;44.316;0.092;2023-04-03T10:30:50;4.00;4.00;3.00
76784;PMS7003;66893;44.316;0.092;2023-04-03T10:36:36;2.75;2.75;2.00
76784;PMS7003;66893;44.316;0.092;2023-04-03T10:39:18;4.00;3.00;3.00
76784;PMS7003;66893;44.316;0.092;2023-04-03T10:41:59;6.25;5.00;4.25
76784;PMS7003;66893;44.316;0.092;2023-04-03T10:50:00;5.00;5.00;3.75
76784;PMS7003;66893;44.316;0.092;2023-04-03T10:52:35;3.00;3.00;2.00
76784;PMS7003;66893;44.316;0.092;2023-04-03T10:57:39;5.25;4.75;3.75
76784;PMS7003;66893;44.316;0.092;2023-04-03T11:00:06;8.25;5.50;4.25
76784;PMS7003;66893;44.316;0.092;2023-04-03T11:05:18;2.00;2.00;2.00
76784;PMS7003;66893;44.316;0.092;2023-04-03T11:07:55;4.00;2.25;2.25
76784;PMS7003;66893;44.316;0.092;2023-04-03T11:16:14;2.00;2.00;2.00
76784;PMS7003;66893;44.316;0.092;2023-04-03T11:19:11;2.25;2.00;1.00
76784;PMS7003;66893;44.316;0.092;2023-04-03T11:21:51;2.75;2.25;2.00
76784;PMS7003;66893;44.316;0.092;2023-04-03T11:24:39;2.00;1.25;1.00
76784;PMS7003;66893;44.316;0.092;2023-04-03T11:27:17;4.00;2.00;2.00
76784;PMS7003;66893;44.316;0.092;2023-04-03T11:29:47;1.25;1.25;1.00
76784;PMS7003;66893;44.316;0.092;2023-04-03T11:35:08;5.00;2.25;2.00
76784;PMS7003;66893;44.316;0.092;2023-04-03T11:37:35;3.00;1.25;1.25
76784;PMS7003;66893;44.316;0.092;2023-04-03T11:42:42;2.00;2.00;1.25
76784;PMS7003;66893;44.316;0.092;2023-04-03T11:50:57;5.75;5.25;4.50
76784;PMS7003;66893;44.316;0.092;2023-04-03T11:53:30;4.75;4.75;3.00
76784;PMS7003;66893;44.316;0.092;2023-04-03T11:55:58;3.00;3.00;2.00
76784;PMS7003;66893;44.316;0.092;2023-04-03T11:58:32;4.00;2.00;2.00
76784;PMS7003;66893;44.316;0.092;2023-04-03T12:01:00;3.00;1.50;1.00
76784;PMS7003;66893;44.316;0.092;2023-04-03T12:16:32;4.50;3.00;3.00
76784;PMS7003;66893;44.316;0.092;2023-04-03T12:24:31;3.75;2.00;1.75
76784;PMS7003;66893;44.316;0.092;2023-04-03T12:35:24;3.00;2.00;1.00
76784;PMS7003;66893;44.316;0.092;2023-04-03T12:40:55;2.00;2.00;1.25
76784;PMS7003;66893;44.316;0.092;2023-04-03T12:43:35;2.25;2.25;2.00
76784;PMS7003;66893;44.316;0.092;2023-04-03T12:46:17;1.00;1.00;1.00
76784;PMS7003;66893;44.316;0.092;2023-04-03T12:49:05;2.75;1.00;1.00
76784;PMS7003;66893;44.316;0.092;2023-04-03T12:52:00;1.00;1.00;1.00
76784;PMS7003;66893;44.316;0.092;2023-04-03T12:54:37;1.00;1.00;1.00
76784;PMS7003;66893;44.316;0.092;2023-04-03T12:57:17;2.00;2.00;2.00
76784;PMS7003;66893;44.316;0.092;2023-04-03T12:59:45;2.00;2.00;2.00
76784;PMS7003;66893;44.316;0.092;2023-04-03T13:02:20;1.50;1.50;1.00
76784;PMS7003;66893;44.316;0.092;2023-04-03T13:04:52;1.50;1.50;1.00
76784;PMS7003;66893;44.316;0.092;2023-04-03T13:07:21;6.00;3.00;2.00
76784;PMS7003;66893;44.316;0.092;2023-04-03T13:09:57;2.00;1.00;1.00
76784;PMS7003;66893;44.316;0.092;2023-04-03T13:12:24;2.75;2.00;2.00
76784;PMS7003;66893;44.316;0.092;2023-04-03T13:14:57;2.25;2.25;2.00
76784;PMS7003;66893;44.316;0.092;2023-04-03T13:17:26;2.00;2.00;1.00
76784;PMS7003;66893;44.316;0.092;2023-04-03T13:19:52;2.00;2.00;1.25
76784;PMS7003;66893;44.316;0.092;2023-04-03T13:24:56;1.50;1.00;1.00
76784;PMS7003;66893;44.316;0.092;2023-04-03T13:27:24;2.25;2.00;1.75
76784;PMS7003;66893;44.316;0.092;2023-04-03T13:29:54;5.25;3.00;2.25
76784;PMS7003;66893;44.316;0.092;2023-04-03T13:32:23;4.75;4.00;3.00
76784;PMS7003;66893;44.316;0.092;2023-04-03T13:34:51;3.00;2.00;1.50
76784;PMS7003;66893;44.316;0.092;2023-04-03T13:40:03;6.75;3.00;2.25
76784;PMS7003;66893;44.316;0.092;2023-04-03T13:42:38;12.25;5.50;3.50
76784;PMS7003;66893;44.316;0.092;2023-04-03T13:45:16;2.25;2.25;1.25
76784;PMS7003;66893;44.316;0.092;2023-04-03T13:48:05;3.00;3.00;2.00
76784;PMS7003;66893;44.316;0.092;2023-04-03T13:50:41;5.75;2.00;2.00
76784;PMS7003;66893;44.316;0.092;2023-04-03T13:54:00;2.25;2.00;1.50
76784;PMS7003;66893;44.316;0.092;2023-04-03T13:56:39;2.00;2.00;1.25
76784;PMS7003;66893;44.316;0.092;2023-04-03T14:01:50;2.50;2.00;1.00
76784;PMS7003;66893;44.316;0.092;2023-04-03T14:06:52;1.25;1.25;1.00
76784;PMS7003;66893;44.316;0.092;2023-04-03T14:09:19;1.00;1.00;1.00
76784;PMS7003;66893;44.316;0.092;2023-04-03T14:11:48;2.00;2.00;1.25
76784;PMS7003;66893;44.316;0.092;2023-04-03T14:14:17;3.00;2.00;2.00
76784;PMS7003;66893;44.316;0.092;2023-04-03T14:16:47;2.00;2.00;1.00
76784;PMS7003;66893;44.316;0.092;2023-04-03T14:19:22;2.00;2.00;1.00
76784;PMS7003;66893;44.316;0.092;2023-04-03T14:21:50;1.00;1.00;0.75
76784;PMS7003;66893;44.316;0.092;2023-04-03T14:24:18;2.50;2.50;2.00
76784;PMS7003;66893;44.316;0.092;2023-04-03T14:26:44;2.00;2.00;2.00
76784;PMS7003;66893;44.316;0.092;2023-04-03T14:29:11;3.00;1.25;1.00
76784;PMS7003;66893;44.316;0.092;2023-04-03T14:31:38;1.50;1.50;1.00
76784;PMS7003;66893;44.316;0.092;2023-04-03T14:34:05;2.00;2.00;2.00
76784;PMS7003;66893;44.316;0.092;2023-04-03T14:36:31;2.00;2.00;2.00
76784;PMS7003;66893;44.316;0.092;2023-04-03T14:38:59;2.00;2.00;2.00
76784;PMS7003;66893;44.316;0.092;2023-04-03T14:41:26;3.25;2.00;1.00
76784;PMS7003;66893;44.316;0.092;2023-04-03T14:43:52;2.00;2.00;1.50
76784;PMS7003;66893;44.316;0.092;2023-04-03T14:46:38;2.00;2.00;1.00
76784;PMS7003;66893;44.316;0.092;2023-04-03T14:49:20;3.25;2.00;1.25
76784;PMS7003;66893;44.316;0.092;2023-04-03T14:51:48;3.00;1.75;1.25
76784;PMS7003;66893;44.316;0.092;2023-04-03T14:54:17;2.75;2.00;2.00
76784;PMS7003;66893;44.316;0.092;2023-04-03T14:56:46;2.25;2.25;2.00
76784;PMS7003;66893;44.316;0.092;2023-04-03T14:59:12;2.00;2.00;1.50
76784;PMS7003;66893;44.316;0.092;2023-04-03T15:01:39;1.00;1.00;1.00
76784;PMS7003;66893;44.316;0.092;2023-04-03T15:04:15;2.25;1.00;0.75
76784;PMS7003;66893;44.316;0.092;2023-04-03T15:06:42;1.75;1.50;1.25
76784;PMS7003;66893;44.316;0.092;2023-04-03T15:09:26;2.25;2.25;2.00
76784;PMS7003;66893;44.316;0.092;2023-04-03T15:11:53;1.75;1.75;1.75
76784;PMS7003;66893;44.316;0.092;2023-04-03T15:14:19;2.00;2.00;1.25
76784;PMS7003;66893;44.316;0.092;2023-04-03T15:16:45;1.75;1.75;1.50
76784;PMS7003;66893;44.316;0.092;2023-04-03T15:19:11;2.00;2.00;1.75
76784;PMS7003;66893;44.316;0.092;2023-04-03T15:21:37;2.25;2.00;2.00
76784;PMS7003;66893;44.316;0.092;2023-04-03T15:24:03;2.00;2.00;2.00
76784;PMS7003;66893;44.316;0.092;2023-04-03T15:26:29;2.00;2.00;1.00
76784;PMS7003;66893;44.316;0.092;2023-04-03T15:28:55;2.00;2.00;1.75
76784;PMS7003;66893;44.316;0.092;2023-04-03T15:31:21;2.00;2.00;1.25
76784;PMS7003;66893;44.316;0.092;2023-04-03T15:33:46;2.00;2.00;2.00
76784;PMS7003;66893;44.316;0.092;2023-04-03T15:36:12;2.50;2.50;2.25
76784;PMS7003;66893;44.316;0.092;2023-04-03T15:38:37;1.75;1.75;1.00
76784;PMS7003;66893;44.316;0.092;2023-04-03T15:41:04;4.75;2.00;1.50
76784;PMS7003;66893;44.316;0.092;2023-04-03T15:43:30;2.00;2.00;2.00
76784;PMS7003;66893;44.316;0.092;2023-04-03T15:45:56;3.00;2.50;2.00
76784;PMS7003;66893;44.316;0.092;2023-04-03T15:48:24;2.00;2.00;2.00
76784;PMS7003;66893;44.316;0.092;2023-04-03T15:50:50;2.00;2.00;2.00
76784;PMS7003;66893;44.316;0.092;2023-04-03T15:53:15;1.50;1.50;1.25
76784;PMS7003;66893;44.316;0.092;2023-04-03T15:55:41;1.25;1.00;1.00
76784;PMS7003;66893;44.316;0.092;2023-04-03T15:58:06;1.25;1.25;1.00
76784;PMS7003;66893;44.316;0.092;2023-04-03T16:00:32;1.00;1.00;1.00
76784;PMS7003;66893;44.316;0.092;2023-04-03T16:03:04;2.00;2.00;2.00
76784;PMS7003;66893;44.316;0.092;2023-04-03T16:05:33;2.00;2.00;1.25
76784;PMS7003;66893;44.316;0.092;2023-04-03T16:08:01;2.00;2.00;1.50
76784;PMS7003;66893;44.316;0.092;2023-04-03T16:10:27;1.50;1.00;1.00
76784;PMS7003;66893;44.316;0.092;2023-04-03T16:12:52;1.75;1.50;1.25